createdAt,value
2023-01-01T00:01:18.844Z,68.21
2023-01-01T00:03:22.814Z,68.39
2023-01-01T00:05:25.429Z,69.10
2023-01-01T00:07:28.013Z,68.97
2023-01-01T00:09:48.385Z,69.29
2023-01-01T00:11:51.063Z,69.14
2023-01-01T00:13:53.672Z,69.09
2023-01-01T00:15:56.425Z,68.61
2023-01-01T00:17:59.029Z,68.48
2023-01-01T00:20:03.017Z,68.31
2023-01-01T00:22:28.009Z,68.43
2023-01-01T00:24:28.165Z,68.83
2023-01-01T00:26:35.046Z,68.78
2023-01-01T00:28:38.353Z,68.96
2023-01-01T00:30:42.076Z,69.28
2023-01-01T00:32:54.954Z,69.38
2023-01-01T00:34:58.776Z,69.12
2023-01-01T00:37:02.653Z,69.22
2023-01-01T00:39:05.296Z,69.53
2023-01-01T00:41:07.914Z,69.25
2023-01-01T00:43:10.536Z,69.29
2023-01-01T00:45:20.493Z,69.23
2023-01-01T00:47:24.292Z,69.07
2023-01-01T00:49:27.855Z,68.81
2023-01-01T00:51:36.676Z,68.83
2023-01-01T00:53:41.135Z,68.67
2023-01-01T00:55:44.724Z,68.10
2023-01-01T00:57:47.316Z,66.47
2023-01-01T00:59:50.355Z,66.26
2023-01-01T01:01:53.082Z,66.12
2023-01-01T01:03:55.719Z,65.82
2023-01-01T01:05:59.839Z,65.38
2023-01-01T01:08:02.469Z,65.24
2023-01-01T01:10:08.325Z,65.31
2023-01-01T01:12:18.743Z,64.88
2023-01-01T01:14:21.763Z,63.76
2023-01-01T01:16:27.903Z,63.47
2023-01-01T01:18:31.601Z,62.72
2023-01-01T01:20:34.241Z,62.62
2023-01-01T01:22:37.062Z,62.30
2023-01-01T01:24:39.666Z,62.11
2023-01-01T01:26:43.544Z,62.07
2023-01-01T01:28:49.765Z,61.49
2023-01-01T01:30:52.840Z,61.27
2023-01-01T01:32:55.608Z,61.28
2023-01-01T01:34:58.172Z,61.77
2023-01-01T01:37:00.726Z,61.23
2023-01-01T01:39:03.364Z,60.76
2023-01-01T01:41:06.069Z,60.98
2023-01-01T01:43:20.720Z,60.74
2023-01-01T01:45:27.011Z,60.38
2023-01-01T01:47:39.245Z,60.53
2023-01-01T01:49:43.362Z,60.77
2023-01-01T01:51:46.904Z,60.54
2023-01-01T01:53:52.630Z,60.23
2023-01-01T01:55:59.463Z,59.76
2023-01-01T01:58:02.858Z,60.26
2023-01-01T02:00:11.510Z,59.69
2023-01-01T02:02:23.750Z,59.76
2023-01-01T02:04:26.743Z,60.12
2023-01-01T02:06:31.295Z,60.35
2023-01-01T02:08:35.544Z,60.40
2023-01-01T02:10:38.282Z,60.21
2023-01-01T02:12:41.038Z,59.42
2023-01-01T02:14:43.755Z,59.75
2023-01-01T02:16:50.838Z,60.07
2023-01-01T02:19:00.904Z,59.79
2023-01-01T02:21:07.620Z,60.01
2023-01-01T02:23:48.542Z,59.60
2023-01-01T02:26:08.036Z,59.58
2023-01-01T02:28:20.766Z,59.29
2023-01-01T02:30:24.751Z,59.19
2023-01-01T02:32:32.296Z,59.42
2023-01-01T02:34:39.257Z,59.90
2023-01-01T02:36:49.448Z,59.84
2023-01-01T02:38:54.679Z,60.63
2023-01-01T02:41:01.653Z,60.85
2023-01-01T02:43:05.715Z,61.07
2023-01-01T02:45:10.195Z,61.14
2023-01-01T02:47:18.320Z,61.60
2023-01-01T02:49:20.931Z,61.73
2023-01-01T02:51:31.777Z,62.03
2023-01-01T02:53:39.150Z,61.97
2023-01-01T02:55:53.172Z,62.56
2023-01-01T02:58:25.029Z,62.85
2023-01-01T03:00:29.429Z,62.83
2023-01-01T03:02:48.633Z,63.11
2023-01-01T03:05:05.061Z,63.61
2023-01-01T03:07:15.321Z,63.58
2023-01-01T03:09:29.438Z,64.06
2023-01-01T03:11:39.702Z,63.86
2023-01-01T03:13:48.803Z,64.23
2023-01-01T03:16:00.803Z,64.50
2023-01-01T03:18:09.641Z,64.38
2023-01-01T03:20:17.723Z,64.70
2023-01-01T03:22:22.664Z,64.78
2023-01-01T03:24:30.861Z,64.81
2023-01-01T03:26:35.516Z,64.64
2023-01-01T03:28:45.268Z,64.50
2023-01-01T03:30:50.819Z,64.62
2023-01-01T03:33:03.716Z,64.69
2023-01-01T03:35:08.699Z,64.52
2023-01-01T03:37:16.818Z,64.38
2023-01-01T03:39:24.509Z,64.24
2023-01-01T03:41:35.697Z,64.14
2023-01-01T03:43:46.120Z,64.56
2023-01-01T03:45:51.987Z,64.88
2023-01-01T03:47:55.571Z,65.02
2023-01-01T03:49:59.136Z,65.12
2023-01-01T03:52:17.069Z,64.83
2023-01-01T03:54:29.684Z,65.25
2023-01-01T03:56:41.016Z,65.68
2023-01-01T03:58:49.111Z,65.91
2023-01-01T04:00:56.490Z,65.81
2023-01-01T04:03:03.041Z,66.11
2023-01-01T04:05:07.471Z,66.22
2023-01-01T04:07:15.862Z,66.33
2023-01-01T04:09:22.841Z,66.28
2023-01-01T04:11:46.884Z,66.24
2023-01-01T04:13:49.904Z,65.55
2023-01-01T04:15:52.652Z,65.67
2023-01-01T04:17:56.038Z,65.68
2023-01-01T04:19:58.593Z,65.97
2023-01-01T04:22:02.099Z,66.02
2023-01-01T04:24:06.546Z,66.56
2023-01-01T04:26:14.132Z,66.28
2023-01-01T04:28:16.704Z,66.60
2023-01-01T04:30:19.994Z,66.70
2023-01-01T04:32:22.659Z,66.90
2023-01-01T04:34:25.921Z,67.41
2023-01-01T04:36:28.808Z,66.99
2023-01-01T04:38:31.421Z,67.19
2023-01-01T04:40:35.345Z,67.30
2023-01-01T04:42:37.915Z,67.37
2023-01-01T04:44:40.491Z,67.55
2023-01-01T04:46:43.650Z,67.41
2023-01-01T04:48:46.690Z,67.36
2023-01-01T04:50:55.307Z,68.08
2023-01-01T04:52:59.642Z,67.91
2023-01-01T04:55:02.293Z,68.12
2023-01-01T04:57:06.325Z,67.96
2023-01-01T04:59:08.996Z,68.03
2023-01-01T05:01:16.574Z,67.96
2023-01-01T05:03:19.494Z,66.67
2023-01-01T05:05:22.336Z,66.11
2023-01-01T05:07:24.953Z,66.45
2023-01-01T05:09:27.493Z,67.51
2023-01-01T05:11:31.144Z,67.77
2023-01-01T05:13:36.652Z,68.37
2023-01-01T05:15:39.298Z,68.48
2023-01-01T05:17:41.937Z,68.52
2023-01-01T05:19:44.597Z,68.93
2023-01-01T05:21:47.188Z,68.65
2023-01-01T05:23:50.417Z,69.08
2023-01-01T05:25:53.027Z,69.34
2023-01-01T05:27:55.637Z,69.23
2023-01-01T05:29:59.618Z,69.34
2023-01-01T05:32:02.212Z,69.54
2023-01-01T05:36:09.156Z,69.03
2023-01-01T05:38:11.882Z,69.36
2023-01-01T05:40:14.479Z,69.04
2023-01-01T05:42:18.778Z,68.80
2023-01-01T05:44:21.311Z,68.82
2023-01-01T05:46:26.263Z,69.12
2023-01-01T05:48:28.914Z,68.60
2023-01-01T05:50:31.829Z,68.87
2023-01-01T05:52:34.451Z,69.06
2023-01-01T05:54:36.996Z,68.58
2023-01-01T05:56:39.595Z,68.38
2023-01-01T05:58:43.104Z,68.33
2023-01-01T06:00:45.703Z,68.34
2023-01-01T06:02:51.523Z,68.68
2023-01-01T06:04:54.116Z,68.53
2023-01-01T06:06:56.670Z,68.56
2023-01-01T06:09:01.256Z,68.93
2023-01-01T06:11:05.831Z,68.58
2023-01-01T06:13:13.082Z,68.83
2023-01-01T06:15:15.949Z,68.79
2023-01-01T06:17:18.509Z,68.71
2023-01-01T06:19:22.435Z,68.79
2023-01-01T06:21:28.196Z,68.72
2023-01-01T06:23:30.819Z,68.89
2023-01-01T06:25:33.420Z,68.88
2023-01-01T06:27:36.245Z,68.57
2023-01-01T06:29:38.807Z,69.00
2023-01-01T06:31:41.412Z,68.52
2023-01-01T06:33:44.452Z,68.92
2023-01-01T06:35:48.320Z,68.58
2023-01-01T06:37:50.873Z,68.27
2023-01-01T06:39:53.429Z,68.55
2023-01-01T06:41:56.047Z,68.52
2023-01-01T06:43:59.344Z,68.52
2023-01-01T06:46:03.527Z,68.20
2023-01-01T06:48:06.451Z,68.21
2023-01-01T06:50:09.693Z,68.57
2023-01-01T06:52:13.596Z,68.59
2023-01-01T06:54:16.226Z,68.66
2023-01-01T06:56:19.800Z,68.92
2023-01-01T06:58:22.375Z,68.90
2023-01-01T07:00:24.958Z,69.00
2023-01-01T07:02:27.671Z,68.84
2023-01-01T07:04:30.332Z,68.72
2023-01-01T07:06:33.905Z,68.72
2023-01-01T07:08:38.348Z,68.98
2023-01-01T07:10:40.962Z,68.80
2023-01-01T07:12:43.560Z,68.56
2023-01-01T07:14:46.129Z,67.97
2023-01-01T07:16:48.803Z,68.36
2023-01-01T07:18:51.733Z,68.11
2023-01-01T07:20:56.426Z,67.96
2023-01-01T07:23:02.132Z,68.17
2023-01-01T07:25:07.143Z,68.04
2023-01-01T07:27:09.750Z,67.46
2023-01-01T07:29:13.911Z,67.42
2023-01-01T07:31:16.471Z,67.39
2023-01-01T07:33:20.987Z,67.02
2023-01-01T07:35:23.630Z,66.89
2023-01-01T07:37:26.373Z,67.32
2023-01-01T07:39:28.890Z,67.18
2023-01-01T07:41:32.836Z,66.93
2023-01-01T07:43:35.408Z,67.26
2023-01-01T07:45:38.006Z,67.43
2023-01-01T07:47:40.600Z,66.12
2023-01-01T07:49:43.203Z,66.73
2023-01-01T07:51:45.733Z,66.73
2023-01-01T07:53:48.374Z,66.58
2023-01-01T07:55:50.987Z,66.41
2023-01-01T07:57:54.962Z,66.38
2023-01-01T07:59:57.757Z,66.12
2023-01-01T08:02:00.427Z,66.25
2023-01-01T08:04:03.051Z,66.38
2023-01-01T08:06:08.597Z,65.79
2023-01-01T08:08:11.724Z,65.34
2023-01-01T08:10:14.659Z,65.18
2023-01-01T08:12:17.235Z,65.50
2023-01-01T08:14:21.191Z,65.60
2023-01-01T08:16:23.855Z,65.81
2023-01-01T08:18:29.334Z,65.42
2023-01-01T08:20:33.537Z,65.28
2023-01-01T08:22:36.157Z,65.02
2023-01-01T08:24:38.709Z,65.43
2023-01-01T08:26:41.285Z,65.24
2023-01-01T08:28:44.462Z,64.69
2023-01-01T08:30:48.421Z,64.88
2023-01-01T08:32:51.016Z,64.84
2023-01-01T08:34:53.587Z,64.77
2023-01-01T08:36:56.208Z,64.97
2023-01-01T08:38:58.820Z,64.95
2023-01-01T08:41:01.425Z,64.55
2023-01-01T08:43:04.110Z,64.81
2023-01-01T08:45:08.164Z,64.74
2023-01-01T08:47:18.798Z,64.90
2023-01-01T08:49:21.400Z,64.95
2023-01-01T08:51:23.964Z,64.60
2023-01-01T08:53:26.616Z,64.77
2023-01-01T08:55:29.324Z,64.84
2023-01-01T08:57:32.527Z,64.86
2023-01-01T08:59:35.201Z,64.44
2023-01-01T09:01:37.825Z,64.83
2023-01-01T09:03:41.905Z,64.75
2023-01-01T09:05:45.856Z,64.89
2023-01-01T09:07:48.443Z,64.73
2023-01-01T09:09:51.003Z,64.47
2023-01-01T09:11:55.040Z,64.09
2023-01-01T09:13:57.630Z,64.05
2023-01-01T09:16:00.296Z,63.64
2023-01-01T09:18:04.590Z,63.70
2023-01-01T09:20:09.499Z,63.43
2023-01-01T09:22:12.852Z,63.81
2023-01-01T09:24:15.472Z,63.85
2023-01-01T09:26:18.073Z,63.96
2023-01-01T09:28:25.618Z,64.24
2023-01-01T09:30:28.449Z,64.23
2023-01-01T09:32:31.306Z,63.81
2023-01-01T09:34:33.874Z,63.16
2023-01-01T09:36:37.822Z,63.35
2023-01-01T09:38:40.472Z,63.35
2023-01-01T09:40:52.502Z,63.51
2023-01-01T09:43:14.659Z,63.46
2023-01-01T09:45:24.198Z,63.46
2023-01-01T09:47:31.789Z,63.64
2023-01-01T09:49:39.097Z,63.79
2023-01-01T09:51:51.113Z,64.06
2023-01-01T09:53:58.861Z,64.36
2023-01-01T09:56:03.205Z,64.09
2023-01-01T09:58:05.989Z,64.60
2023-01-01T10:00:16.001Z,64.53
2023-01-01T10:02:48.230Z,64.00
2023-01-01T10:05:04.275Z,63.59
2023-01-01T10:07:17.052Z,63.98
2023-01-01T10:09:28.716Z,63.96
2023-01-01T10:11:39.161Z,64.03
2023-01-01T10:13:44.195Z,64.08
2023-01-01T10:15:54.393Z,64.18
2023-01-01T10:18:00.017Z,64.24
2023-01-01T10:20:05.211Z,64.17
2023-01-01T10:22:12.904Z,65.09
2023-01-01T10:24:32.139Z,65.08
2023-01-01T10:26:38.342Z,65.46
2023-01-01T10:28:48.129Z,65.75
2023-01-01T10:30:54.140Z,66.18
2023-01-01T10:32:58.125Z,66.07
2023-01-01T10:35:02.099Z,66.25
2023-01-01T10:37:05.655Z,66.19
2023-01-01T10:39:12.741Z,66.65
2023-01-01T10:41:19.886Z,66.48
2023-01-01T10:43:23.027Z,66.53
2023-01-01T10:45:32.154Z,66.48
2023-01-01T10:47:34.733Z,66.54
2023-01-01T10:49:55.202Z,67.17
2023-01-01T10:51:59.173Z,67.03
2023-01-01T10:54:01.797Z,67.00
2023-01-01T10:56:10.362Z,66.57
2023-01-01T10:58:28.116Z,65.91
2023-01-01T11:00:30.723Z,66.03
2023-01-01T11:02:33.454Z,66.20
2023-01-01T11:04:36.058Z,66.05
2023-01-01T11:06:40.738Z,65.83
2023-01-01T11:08:49.598Z,66.25
2023-01-01T11:10:53.005Z,66.28
2023-01-01T11:13:05.628Z,66.40
2023-01-01T11:15:09.697Z,66.66
2023-01-01T11:17:12.289Z,66.58
2023-01-01T11:19:23.873Z,65.46
2023-01-01T11:21:26.493Z,64.99
2023-01-01T11:23:31.263Z,64.13
2023-01-01T11:25:33.846Z,64.32
2023-01-01T11:27:36.425Z,64.21
2023-01-01T11:29:41.256Z,63.73
2023-01-01T11:31:46.391Z,63.04
2023-01-01T11:33:52.480Z,62.50
2023-01-01T11:35:57.125Z,62.52
2023-01-01T11:38:01.130Z,62.84
2023-01-01T11:40:05.686Z,62.63
2023-01-01T11:42:08.488Z,62.20
2023-01-01T11:44:16.556Z,61.82
2023-01-01T11:46:25.662Z,60.39
2023-01-01T11:48:32.434Z,59.44
2023-01-01T11:50:37.617Z,59.18
2023-01-01T11:52:42.401Z,58.94
2023-01-01T11:54:46.204Z,59.12
2023-01-01T11:56:53.129Z,59.29
2023-01-01T11:58:59.198Z,57.73
2023-01-01T12:01:05.657Z,56.19
2023-01-01T12:03:20.561Z,55.96
2023-01-01T12:05:25.968Z,55.85
2023-01-01T12:07:33.793Z,55.69
2023-01-01T12:09:44.464Z,55.51
2023-01-01T12:11:52.667Z,56.01
2023-01-01T12:14:00.314Z,56.94
2023-01-01T12:16:11.096Z,58.11
2023-01-01T12:18:22.209Z,58.53
2023-01-01T12:20:29.290Z,58.86
2023-01-01T12:22:32.371Z,59.22
2023-01-01T12:24:36.180Z,59.48
2023-01-01T12:26:54.511Z,59.32
2023-01-01T12:29:25.788Z,57.93
2023-01-01T12:31:35.088Z,58.26
2023-01-01T12:34:05.127Z,57.08
2023-01-01T12:36:20.903Z,57.21
2023-01-01T12:38:39.404Z,57.45
2023-01-01T12:40:51.650Z,57.74
2023-01-01T12:43:02.909Z,57.39
2023-01-01T12:45:30.671Z,56.32
2023-01-01T12:47:43.399Z,52.96
2023-01-01T12:50:03.412Z,52.69
2023-01-01T12:52:15.697Z,52.03
2023-01-01T12:54:58.563Z,51.22
2023-01-01T12:57:07.695Z,52.01
2023-01-01T12:59:15.489Z,52.56
2023-01-01T13:01:26.005Z,53.45
2023-01-01T13:03:37.693Z,54.82
2023-01-01T13:05:44.217Z,55.94
2023-01-01T13:07:52.028Z,56.52
2023-01-01T13:09:54.871Z,57.48
2023-01-01T13:12:01.388Z,58.09
2023-01-01T13:14:04.047Z,58.64
2023-01-01T13:16:07.752Z,58.90
2023-01-01T13:18:21.714Z,59.33
2023-01-01T13:20:26.614Z,59.19
2023-01-01T13:22:43.105Z,59.76
2023-01-01T13:25:04.880Z,60.05
2023-01-01T13:27:10.926Z,60.71
2023-01-01T13:29:34.371Z,60.07
2023-01-01T13:32:03.171Z,60.24
2023-01-01T13:34:37.539Z,59.88
2023-01-01T13:36:40.195Z,59.76
2023-01-01T13:38:47.367Z,59.64
2023-01-01T13:40:52.733Z,59.08
2023-01-01T13:43:07.107Z,58.49
2023-01-01T13:45:36.583Z,58.06
2023-01-01T13:47:52.489Z,57.63
2023-01-01T13:50:06.087Z,57.91
2023-01-01T13:52:32.580Z,57.09
2023-01-01T13:55:19.427Z,57.58
2023-01-01T13:57:37.781Z,56.44
2023-01-01T13:59:56.378Z,56.56
2023-01-01T14:02:15.020Z,57.46
2023-01-01T14:04:31.721Z,58.14
2023-01-01T14:06:38.122Z,58.85
2023-01-01T14:08:40.749Z,56.31
2023-01-01T14:10:51.050Z,56.41
2023-01-01T14:12:55.363Z,55.98
2023-01-01T14:14:57.945Z,56.90
2023-01-01T14:17:03.481Z,56.64
2023-01-01T14:19:10.000Z,57.77
2023-01-01T14:21:17.331Z,57.32
2023-01-01T14:23:24.391Z,57.27
2023-01-01T14:25:29.160Z,57.57
2023-01-01T14:27:33.501Z,57.37
2023-01-01T14:29:36.738Z,57.35
2023-01-01T14:31:43.548Z,56.91
2023-01-01T14:33:47.010Z,56.85
2023-01-01T14:35:53.758Z,57.66
2023-01-01T14:37:56.922Z,56.39
2023-01-01T14:40:07.992Z,57.18
2023-01-01T14:42:15.397Z,57.30
2023-01-01T14:44:22.748Z,56.58
2023-01-01T14:46:27.780Z,57.10
2023-01-01T14:48:30.419Z,56.42
2023-01-01T14:50:34.629Z,56.31
2023-01-01T14:52:37.330Z,55.87
2023-01-01T14:54:44.409Z,56.04
2023-01-01T14:56:49.662Z,56.15
2023-01-01T14:58:52.494Z,55.73
2023-01-01T15:01:15.017Z,56.09
2023-01-01T15:03:20.170Z,56.24
2023-01-01T15:05:35.401Z,56.72
2023-01-01T15:07:38.525Z,56.90
2023-01-01T15:09:41.134Z,57.00
2023-01-01T15:11:43.884Z,56.26
2023-01-01T15:13:55.535Z,56.03
2023-01-01T15:16:20.073Z,56.30
2023-01-01T15:18:39.735Z,56.81
2023-01-01T15:20:42.456Z,56.58
2023-01-01T15:22:45.321Z,57.38
2023-01-01T15:24:48.177Z,56.87
2023-01-01T15:26:54.240Z,57.44
2023-01-01T15:28:57.978Z,56.55
2023-01-01T15:31:01.977Z,56.55
2023-01-01T15:33:08.898Z,56.52
2023-01-01T15:35:29.266Z,56.77
2023-01-01T15:37:36.817Z,56.44
2023-01-01T15:39:48.162Z,56.82
2023-01-01T15:41:52.071Z,57.18
2023-01-01T15:44:08.235Z,57.43
2023-01-01T15:46:24.101Z,57.16
2023-01-01T15:48:33.420Z,56.89
2023-01-01T15:50:40.194Z,57.47
2023-01-01T15:52:49.148Z,57.67
2023-01-01T15:54:54.601Z,57.84
2023-01-01T15:56:57.238Z,57.60
2023-01-01T15:59:08.447Z,57.99
2023-01-01T16:01:20.125Z,57.35
2023-01-01T16:03:26.632Z,57.61
2023-01-01T16:05:29.861Z,58.33
2023-01-01T16:07:32.506Z,58.41
2023-01-01T16:09:36.279Z,58.27
2023-01-01T16:11:38.839Z,57.68
2023-01-01T16:13:42.093Z,57.50
2023-01-01T16:15:50.550Z,57.51
2023-01-01T16:17:55.146Z,57.61
2023-01-01T16:19:57.766Z,57.25
2023-01-01T16:22:00.375Z,57.32
2023-01-01T16:24:02.956Z,57.66
2023-01-01T16:26:05.817Z,57.90
2023-01-01T16:28:08.686Z,57.80
2023-01-01T16:30:13.332Z,57.73
2023-01-01T16:32:18.490Z,57.97
2023-01-01T16:34:22.419Z,57.13
2023-01-01T16:36:27.365Z,57.33
2023-01-01T16:38:29.944Z,57.24
2023-01-01T16:40:37.418Z,57.59
2023-01-01T16:42:40.602Z,57.27
2023-01-01T16:44:43.211Z,57.27
2023-01-01T16:46:45.843Z,57.34
2023-01-01T16:48:48.360Z,57.12
2023-01-01T16:50:53.047Z,57.52
2023-01-01T16:52:55.637Z,57.34
2023-01-01T16:54:58.264Z,57.61
2023-01-01T16:57:00.797Z,57.57
2023-01-01T16:59:04.626Z,57.69
2023-01-01T17:01:10.303Z,57.75
2023-01-01T17:03:13.396Z,57.48
2023-01-01T17:05:16.091Z,57.38
2023-01-01T17:07:20.104Z,57.24
2023-01-01T17:09:22.682Z,57.27
2023-01-01T17:11:25.257Z,55.93
2023-01-01T17:13:27.817Z,56.15
2023-01-01T17:15:30.817Z,56.37
2023-01-01T17:17:33.437Z,56.29
2023-01-01T17:19:36.125Z,56.14
2023-01-01T17:21:38.837Z,56.24
2023-01-01T17:23:42.843Z,56.06
2023-01-01T17:25:45.460Z,55.85
2023-01-01T17:27:48.069Z,55.87
2023-01-01T17:29:50.621Z,55.70
2023-01-01T17:31:53.245Z,55.84
2023-01-01T17:33:55.887Z,55.72
2023-01-01T17:35:58.430Z,55.54
2023-01-01T17:38:00.987Z,55.45
2023-01-01T17:40:05.529Z,55.65
2023-01-01T17:42:08.595Z,55.74
2023-01-01T17:44:11.574Z,55.81
2023-01-01T17:46:15.927Z,55.53
2023-01-01T17:48:18.500Z,55.43
2023-01-01T17:50:21.291Z,55.46
2023-01-01T17:52:23.894Z,55.37
2023-01-01T17:54:26.490Z,55.31
2023-01-01T17:56:30.430Z,55.48
2023-01-01T17:58:35.534Z,55.54
2023-01-01T18:00:38.961Z,55.31
2023-01-01T18:02:41.645Z,55.58
2023-01-01T18:04:45.135Z,55.83
2023-01-01T18:06:54.220Z,56.45
2023-01-01T18:08:58.877Z,56.71
2023-01-01T18:11:01.843Z,57.00
2023-01-01T18:13:05.755Z,56.99
2023-01-01T18:15:09.631Z,57.54
2023-01-01T18:17:12.230Z,57.55
2023-01-01T18:19:14.980Z,57.63
2023-01-01T18:21:21.702Z,57.91
2023-01-01T18:23:24.342Z,58.18
2023-01-01T18:25:27.004Z,58.02
2023-01-01T18:27:29.613Z,58.72
2023-01-01T18:29:33.504Z,58.82
2023-01-01T18:31:36.671Z,58.86
2023-01-01T18:33:39.329Z,59.43
2023-01-01T18:35:41.938Z,59.47
2023-01-01T18:37:44.525Z,59.56
2023-01-01T18:39:48.190Z,59.14
2023-01-01T18:42:15.311Z,59.20
2023-01-01T18:44:21.161Z,59.57
2023-01-01T18:46:25.226Z,59.56
2023-01-01T18:48:27.779Z,60.13
2023-01-01T18:50:32.011Z,60.24
2023-01-01T18:52:34.971Z,60.26
2023-01-01T18:54:37.539Z,59.94
2023-01-01T18:56:40.221Z,60.38
2023-01-01T18:58:43.629Z,60.66
2023-01-01T19:00:46.299Z,60.26
2023-01-01T19:02:56.520Z,60.48
2023-01-01T19:05:14.801Z,60.76
2023-01-01T19:07:18.076Z,60.68
2023-01-01T19:09:23.388Z,60.57
2023-01-01T19:11:26.029Z,60.70
2023-01-01T19:13:30.674Z,60.68
2023-01-01T19:15:33.244Z,60.73
2023-01-01T19:17:35.796Z,61.06
2023-01-01T19:19:42.412Z,61.44
2023-01-01T19:21:51.174Z,61.95
2023-01-01T19:23:56.196Z,61.89
2023-01-01T19:26:02.418Z,62.16
2023-01-01T19:28:31.975Z,62.38
2023-01-01T19:30:35.132Z,61.90
2023-01-01T19:32:38.534Z,62.32
2023-01-01T19:34:42.444Z,62.66
2023-01-01T19:36:46.290Z,62.57
2023-01-01T19:38:48.848Z,62.87
2023-01-01T19:40:51.518Z,63.26
2023-01-01T19:42:54.092Z,63.34
2023-01-01T19:44:56.698Z,63.01
2023-01-01T19:47:00.556Z,63.02
2023-01-01T19:49:03.514Z,62.79
2023-01-01T19:51:07.594Z,62.92
2023-01-01T19:53:10.105Z,62.55
2023-01-01T19:55:15.161Z,62.53
2023-01-01T19:57:21.379Z,62.17
2023-01-01T19:59:27.804Z,62.00
2023-01-01T20:01:36.058Z,62.10
2023-01-01T20:03:56.535Z,61.30
2023-01-01T20:05:59.603Z,60.82
2023-01-01T20:08:03.902Z,61.00
2023-01-01T20:10:07.212Z,60.66
2023-01-01T20:12:09.830Z,60.69
2023-01-01T20:14:12.409Z,60.40
2023-01-01T20:16:15.192Z,60.01
2023-01-01T20:18:17.826Z,60.06
2023-01-01T20:20:20.396Z,60.18
2023-01-01T20:22:22.186Z,60.39
2023-01-01T20:24:26.150Z,59.77
2023-01-01T20:26:28.744Z,59.06
2023-01-01T20:28:49.182Z,58.72
2023-01-01T20:30:51.733Z,58.45
2023-01-01T20:32:54.375Z,58.62
2023-01-01T20:34:56.960Z,58.30
2023-01-01T20:37:17.323Z,58.42
2023-01-01T20:39:20.125Z,58.64
2023-01-01T20:41:26.748Z,58.38
2023-01-01T20:43:29.883Z,58.17
2023-01-01T20:45:32.491Z,57.14
2023-01-01T20:47:36.652Z,57.67
2023-01-01T20:49:39.600Z,57.55
2023-01-01T20:51:42.158Z,57.88
2023-01-01T20:53:45.010Z,58.01
2023-01-01T20:55:47.570Z,58.24
2023-01-01T20:57:51.500Z,58.74
2023-01-01T20:59:54.090Z,58.57
2023-01-01T21:01:56.759Z,58.81
2023-01-01T21:04:02.559Z,58.71
2023-01-01T21:06:05.419Z,58.57
2023-01-01T21:08:08.061Z,58.99
2023-01-01T21:10:11.055Z,59.43
2023-01-01T21:12:13.663Z,59.50
2023-01-01T21:14:25.239Z,59.51
2023-01-01T21:16:29.745Z,59.90
2023-01-01T21:18:32.441Z,60.23
2023-01-01T21:20:37.801Z,60.46
2023-01-01T21:22:41.811Z,60.75
2023-01-01T21:24:47.336Z,60.47
2023-01-01T21:26:57.116Z,60.79
2023-01-01T21:29:00.445Z,60.73
2023-01-01T21:31:11.394Z,60.95
2023-01-01T21:33:16.793Z,60.99
2023-01-01T21:35:22.185Z,61.12
2023-01-01T21:37:45.576Z,60.91
2023-01-01T21:39:48.169Z,61.05
2023-01-01T21:41:50.854Z,60.16
2023-01-01T21:43:55.534Z,60.47
2023-01-01T21:46:03.856Z,60.65
2023-01-01T21:48:12.705Z,60.80
2023-01-01T21:50:24.498Z,60.63
2023-01-01T21:52:26.930Z,60.75
2023-01-01T21:54:34.191Z,61.06
2023-01-01T21:56:38.892Z,61.05
2023-01-01T21:59:02.813Z,61.10
2023-01-01T22:01:18.098Z,61.55
2023-01-01T22:03:22.408Z,61.59
2023-01-01T22:05:34.134Z,61.85
2023-01-01T22:10:11.429Z,62.12
2023-01-01T22:12:20.668Z,62.22
2023-01-01T22:14:28.220Z,62.36
2023-01-01T22:16:31.011Z,62.47
2023-01-01T22:18:39.890Z,61.93
2023-01-01T22:20:45.081Z,62.05
2023-01-01T22:22:47.646Z,62.14
2023-01-01T22:24:54.543Z,62.46
2023-01-01T22:26:58.042Z,62.33
2023-01-01T22:29:04.259Z,62.61
2023-01-01T22:31:07.200Z,62.40
2023-01-01T22:33:15.300Z,62.49
2023-01-01T22:35:20.894Z,62.28
2023-01-01T22:37:32.339Z,62.49
2023-01-01T22:39:36.548Z,62.28
2023-01-01T22:41:39.125Z,62.05
2023-01-01T22:43:44.353Z,62.70
2023-01-01T22:45:49.628Z,62.53
2023-01-01T22:47:52.444Z,62.39
2023-01-01T22:49:55.829Z,62.58
2023-01-01T22:51:59.830Z,62.46
2023-01-01T22:54:02.408Z,62.66
2023-01-01T22:56:05.381Z,62.45
2023-01-01T22:58:07.945Z,62.65
2023-01-01T23:00:13.724Z,62.78
2023-01-01T23:02:16.322Z,62.65
2023-01-01T23:04:18.987Z,62.92
2023-01-01T23:06:22.817Z,62.65
2023-01-01T23:08:26.983Z,63.34
2023-01-01T23:10:29.538Z,63.37
2023-01-01T23:12:32.434Z,63.59
2023-01-01T23:14:52.750Z,63.85
2023-01-01T23:16:55.432Z,63.55
2023-01-01T23:18:58.000Z,63.62
2023-01-01T23:21:01.566Z,63.77
2023-01-01T23:23:04.167Z,64.24
2023-01-01T23:25:11.996Z,64.06
2023-01-01T23:27:15.465Z,64.25
2023-01-01T23:29:19.241Z,64.36
2023-01-01T23:31:25.437Z,63.82
2023-01-01T23:33:29.432Z,63.82
2023-01-01T23:35:32.082Z,63.86
2023-01-01T23:37:34.907Z,63.93
2023-01-01T23:39:37.614Z,63.83
2023-01-01T23:41:41.580Z,63.91
2023-01-01T23:43:44.282Z,63.82
2023-01-01T23:45:47.875Z,64.00
2023-01-01T23:47:50.511Z,64.25
2023-01-01T23:49:53.134Z,64.10
2023-01-01T23:51:56.656Z,64.55
2023-01-01T23:53:59.233Z,64.63
2023-01-01T23:56:01.792Z,64.42
2023-01-01T23:58:05.762Z,64.45
